Time;durP1;ratioP1;P1;durP2;ratioP2;P2;SDS_P1;SDS_P2;PMS_P1;PMS_P2;Temp;Humidity;BMP_temperature;BMP_pressure;BME280_temperature;BME280_humidity;BME280_pressure;Samples;Min_cycle;Max_cycle;Signal;HPM_P1;HPM_P2
2021/10/06 00:01:41;;;;;;;21.10;9.93;;;;;;;11.38;100.00;100618.13;5054398;28;20032;-61
2021/10/06 00:04:06;;;;;;;25.35;10.30;;;;;;;11.37;100.00;100634.44;5054153;28;20048;-58
2021/10/06 00:06:33;;;;;;;19.83;10.10;;;;;;;11.46;100.00;100628.66;5071536;28;20461;-58
2021/10/06 00:08:58;;;;;;;38.35;11.20;;;;;;;11.43;100.00;100625.56;5054077;28;20403;-58
2021/10/06 00:11:24;;;;;;;18.93;8.70;;;;;;;11.47;100.00;100624.13;5073471;28;20256;-57
2021/10/06 00:13:51;;;;;;;32.25;11.02;;;;;;;11.42;100.00;100632.78;5089114;28;20280;-58
2021/10/06 00:16:19;;;;;;;15.33;6.80;;;;;;;11.44;100.00;100616.50;5070351;28;20068;-57
2021/10/06 00:18:45;;;;;;;14.30;5.87;;;;;;;11.42;100.00;100635.47;5070279;28;20291;-58
2021/10/06 00:21:11;;;;;;;;;;;;;;;11.46;100.00;100620.63;5089334;28;20284;-54
2021/10/06 00:23:36;;;;;;;15.23;5.53;;;;;;;11.49;100.00;100627.41;5090781;28;19965;-58
2021/10/06 00:26:04;;;;;;;16.97;5.50;;;;;;;11.45;100.00;100623.50;5074292;28;20020;-60
2021/10/06 00:28:30;;;;;;;13.80;4.77;;;;;;;11.50;100.00;100623.69;5091278;28;20447;-59
2021/10/06 00:30:57;;;;;;;8.63;4.63;;;;;;;11.56;100.00;100625.56;5092382;28;20268;-59
2021/10/06 00:33:26;;;;;;;12.87;3.03;;;;;;;11.59;100.00;100630.50;5094775;28;20038;-58
2021/10/06 00:35:53;;;;;;;16.10;4.17;;;;;;;11.59;100.00;100617.13;5095938;28;20355;-59
2021/10/06 00:38:21;;;;;;;13.87;4.27;;;;;;;11.67;100.00;100639.34;5096183;28;20364;-58
2021/10/06 00:40:47;;;;;;;17.90;3.90;;;;;;;11.58;100.00;100623.50;5063067;28;20266;-59
2021/10/06 00:43:13;;;;;;;18.85;4.70;;;;;;;11.68;100.00;100638.31;5076510;28;20360;-58
2021/10/06 00:45:39;;;;;;;19.42;5.82;;;;;;;11.71;100.00;100624.50;5075854;28;20532;-60
2021/10/06 00:48:04;;;;;;;18.75;4.35;;;;;;;11.68;100.00;100633.81;5057724;28;20361;-58
2021/10/06 00:50:30;;;;;;;11.20;3.50;;;;;;;11.71;100.00;100629.88;5040831;28;20094;-59
2021/10/06 00:52:56;;;;;;;19.00;5.03;;;;;;;11.73;100.00;100625.97;5074908;28;20049;-59
2021/10/06 00:55:22;;;;;;;10.88;4.20;;;;;;;11.73;100.00;100625.97;5057245;28;20028;-58
2021/10/06 00:57:47;;;;;;;18.15;5.28;;;;;;;11.71;100.00;100657.50;5076257;28;20033;-60
2021/10/06 01:00:13;;;;;;;20.55;5.88;;;;;;;11.68;100.00;100638.31;5075496;28;20051;-54
2021/10/06 01:02:38;;;;;;;15.60;6.80;;;;;;;11.72;100.00;100651.09;5057453;28;20098;-58
2021/10/06 01:05:06;;;;;;;14.33;4.70;;;;;;;11.76;100.00;100651.50;5075293;28;20041;-59
2021/10/06 01:07:33;;;;;;;12.80;3.43;;;;;;;11.73;100.00;100652.75;5056972;28;20056;-58
2021/10/06 01:10:01;;;;;;;11.80;3.10;;;;;;;11.76;100.00;100656.84;5075362;28;20289;-58
2021/10/06 01:12:26;;;;;;;13.27;3.93;;;;;;;11.65;100.00;100662.84;5058094;28;20323;-61
2021/10/06 01:14:52;;;;;;;11.52;3.33;;;;;;;11.71;100.00;100653.97;5075964;28;20269;-60
2021/10/06 01:17:18;;;;;;;9.98;2.65;;;;;;;11.64;100.00;100662.00;5074271;28;20033;-59
2021/10/06 01:19:44;;;;;;;10.38;2.60;;;;;;;11.62;100.00;100667.59;5039998;28;20075;-58
2021/10/06 01:22:09;;;;;;;15.88;2.97;;;;;;;11.56;100.00;100668.41;5074334;28;20535;-59
2021/10/06 01:24:35;;;;;;;14.83;2.60;;;;;;;11.51;100.00;100660.16;5074696;28;20044;-59
2021/10/06 01:27:00;;;;;;;12.60;2.23;;;;;;;11.56;100.00;100668.41;5057559;28;20273;-59
2021/10/06 01:29:27;;;;;;;9.57;2.87;;;;;;;11.55;100.00;100657.91;5074477;28;20033;-58
2021/10/06 01:31:53;;;;;;;13.43;2.87;;;;;;;11.52;100.00;100661.81;5075247;28;20040;-59
2021/10/06 01:34:21;;;;;;;7.95;3.00;;;;;;;11.52;100.00;100669.03;5056845;28;20288;-58
2021/10/06 01:36:49;;;;;;;15.17;3.37;;;;;;;11.52;100.00;100653.78;5074793;28;20032;-59
2021/10/06 01:39:16;;;;;;;17.30;3.07;;;;;;;11.52;100.00;100663.69;5074371;28;20288;-59
2021/10/06 01:41:43;;;;;;;6.37;2.70;;;;;;;11.45;100.00;100663.66;5075497;28;20334;-59
2021/10/06 01:44:13;;;;;;;13.13;3.73;;;;;;;11.50;100.00;100665.75;5056049;28;20313;-60
2021/10/06 01:46:38;;;;;;;10.70;3.23;;;;;;;11.41;100.00;100670.47;5074252;28;20364;-58
2021/10/06 01:49:04;;;;;;;9.80;2.90;;;;;;;11.52;100.00;100677.88;5074173;28;20364;-58
2021/10/06 01:51:29;;;;;;;12.60;4.57;;;;;;;11.56;100.00;100681.81;5074460;28;20280;-56
2021/10/06 01:53:55;;;;;;;9.50;2.93;;;;;;;11.40;100.00;100684.88;5055944;28;20546;-59
2021/10/06 01:56:20;;;;;;;23.83;4.33;;;;;;;11.25;100.00;100703.81;5073606;28;20430;-58
2021/10/06 01:58:46;;;;;;;9.93;4.20;;;;;;;12.55;100.00;100672.16;5057066;28;20028;-59
2021/10/06 02:01:12;;;;;;;10.48;3.60;;;;;;;12.83;100.00;100677.22;5076178;28;20097;-59
2021/10/06 02:03:38;;;;;;;11.27;4.88;;;;;;;13.01;100.00;100668.44;5092616;28;20032;-60
2021/10/06 02:06:04;;;;;;;18.40;4.03;;;;;;;13.17;100.00;100663.59;5067171;28;20043;-59
2021/10/06 02:08:29;;;;;;;13.68;3.53;;;;;;;11.52;100.00;100677.88;5094101;28;20131;-59
2021/10/06 02:10:55;;;;;;;11.70;4.33;;;;;;;11.32;100.00;100683.22;5095066;28;20122;-59
2021/10/06 02:13:20;;;;;;;14.23;4.03;;;;;;;11.26;100.00;100708.13;5083178;28;20822;-58
2021/10/06 02:15:47;;;;;;;14.90;3.83;;;;;;;11.26;100.00;100690.22;5066256;28;20094;-57
2021/10/06 02:18:12;;;;;;;;;;;;;;;11.19;100.00;100689.38;5050582;28;20257;-58
2021/10/06 02:20:38;;;;;;;8.97;3.47;;;;;;;11.19;100.00;100679.50;5064664;28;20373;-59
2021/10/06 02:23:03;;;;;;;12.63;4.23;;;;;;;11.21;100.00;100684.66;5084140;28;20181;-59
2021/10/06 02:25:29;;;;;;;11.33;3.57;;;;;;;11.25;100.00;100688.56;5082663;28;20045;-59
2021/10/06 02:27:54;;;;;;;13.65;4.57;;;;;;;11.17;100.00;100712.84;5083659;28;20047;-59
2021/10/06 02:30:20;;;;;;;24.37;4.80;;;;;;;11.29;100.00;100668.38;5046758;28;20044;-59
2021/10/06 02:32:46;;;;;;;13.35;4.07;;;;;;;11.21;100.00;100684.66;5056657;28;20037;-60
2021/10/06 02:35:11;;;;;;;10.33;3.37;;;;;;;11.27;100.00;100680.34;5056639;28;20486;-60
2021/10/06 02:37:38;;;;;;;13.93;3.80;;;;;;;11.20;100.00;100680.31;5074124;28;20047;-59
2021/10/06 02:40:06;;;;;;;11.07;3.87;;;;;;;11.23;100.00;100677.25;5074337;28;20041;-60
2021/10/06 02:42:32;;;;;;;17.13;4.17;;;;;;;11.22;100.00;100662.22;5056260;28;20752;-59
2021/10/06 02:44:57;;;;;;;9.48;3.83;;;;;;;11.25;100.00;100671.69;5074583;28;20300;-59
2021/10/06 02:47:23;;;;;;;12.73;3.65;;;;;;;11.21;100.00;100691.88;5074029;28;20063;-59
2021/10/06 02:49:48;;;;;;;12.27;4.07;;;;;;;11.25;100.00;100677.84;5074378;28;20072;-60
2021/10/06 02:52:14;;;;;;;17.37;3.83;;;;;;;11.12;100.00;100686.69;5075723;28;20469;-61
2021/10/06 02:54:40;;;;;;;21.90;4.18;;;;;;;11.16;100.00;100692.47;5075772;28;20629;-59
2021/10/06 02:57:05;;;;;;;36.63;5.50;;;;;;;11.07;100.00;100697.19;5075236;28;20115;-60
2021/10/06 02:59:32;;;;;;;25.13;4.57;;;;;;;11.04;100.00;100697.59;5056577;28;20049;-59
2021/10/06 03:01:57;;;;;;;10.20;4.37;;;;;;;11.07;100.00;100701.69;5074584;28;20029;-59
2021/10/06 03:04:23;;;;;;;73.77;8.70;;;;;;;11.12;100.00;100701.94;5073978;28;20272;-58
2021/10/06 03:06:49;;;;;;;20.25;6.15;;;;;;;11.54;100.00;100691.06;5074004;28;20044;-59
2021/10/06 03:09:15;;;;;;;22.83;8.02;;;;;;;11.09;100.00;100684.41;5075872;28;20051;-59
2021/10/06 03:11:40;;;;;;;18.95;8.93;;;;;;;10.98;100.00;100688.50;5075972;28;20076;-57
2021/10/06 03:14:07;;;;;;;21.40;10.38;;;;;;;11.02;100.00;100700.47;5057355;28;20052;-59
2021/10/06 03:16:32;;;;;;;20.30;11.80;;;;;;;11.11;100.00;100702.97;5073827;28;20089;-58
2021/10/06 03:18:57;;;;;;;17.07;10.40;;;;;;;11.14;100.00;100705.22;5056549;28;20052;-59
2021/10/06 03:21:23;;;;;;;20.93;7.53;;;;;;;11.15;100.00;100698.84;5073976;28;20268;-57
2021/10/06 03:23:49;;;;;;;20.30;8.10;;;;;;;11.33;100.00;100699.09;5073904;28;20036;-59
2021/10/06 03:26:14;;;;;;;24.50;9.15;;;;;;;11.29;100.00;100702.38;5073974;28;20242;-58
2021/10/06 03:28:40;;;;;;;22.30;9.47;;;;;;;11.25;100.00;100707.31;5055666;28;20052;-59
2021/10/06 03:31:05;;;;;;;22.85;9.25;;;;;;;11.26;100.00;100708.94;5073365;28;20155;-59
2021/10/06 03:33:31;;;;;;;20.55;9.45;;;;;;;11.25;100.00;100699.28;5055239;28;20111;-59
2021/10/06 03:35:56;;;;;;;18.50;8.75;;;;;;;11.08;100.00;100711.41;5073535;28;20037;-59
2021/10/06 03:38:22;;;;;;;47.60;11.43;;;;;;;11.00;100.00;100717.75;5073370;28;20132;-59
2021/10/06 03:40:48;;;;;;;25.97;9.40;;;;;;;10.98;100.00;100720.63;5073019;28;20072;-57
2021/10/06 03:43:13;;;;;;;28.77;10.50;;;;;;;11.04;100.00;100737.72;5073598;28;20067;-58
2021/10/06 03:45:39;;;;;;;28.97;9.70;;;;;;;10.92;100.00;100726.78;5055178;28;20037;-59
2021/10/06 03:48:05;;;;;;;30.35;10.38;;;;;;;10.94;100.00;100724.72;5073774;28;20075;-59
2021/10/06 03:50:31;;;;;;;30.83;7.65;;;;;;;10.75;100.00;100719.09;5058564;28;20063;-58
2021/10/06 03:52:56;;;;;;;20.33;4.53;;;;;;;10.67;100.00;100738.00;5072716;28;20135;-59
2021/10/06 03:55:22;;;;;;;14.03;3.07;;;;;;;10.82;100.00;100750.41;5075832;28;20040;-58
2021/10/06 03:57:47;;;;;;;33.13;3.75;;;;;;;12.06;100.00;100715.41;5074874;28;20044;-58
2021/10/06 04:00:13;;;;;;;10.00;2.13;;;;;;;12.89;100.00;100729.19;5076752;28;20147;-58
2021/10/06 04:02:40;;;;;;;19.70;3.13;;;;;;;12.82;100.00;100725.72;5071552;28;20599;-58
2021/10/06 04:05:07;;;;;;;30.85;3.85;;;;;;;9.72;100.00;100730.34;5072784;28;20032;-59
2021/10/06 04:07:33;;;;;;;17.30;2.20;;;;;;;13.46;100.00;100731.97;5054167;28;20033;-58
2021/10/06 04:09:58;;;;;;;60.28;5.28;;;;;;;13.14;100.00;100723.06;5073168;28;20802;-58
2021/10/06 04:12:24;;;;;;;26.02;3.47;;;;;;;14.86;100.00;100735.44;5072594;28;20051;-58
2021/10/06 04:14:50;;;;;;;17.17;4.28;;;;;;;13.50;100.00;100728.88;5073715;28;20056;-58
2021/10/06 04:17:15;;;;;;;33.83;7.97;;;;;;;13.12;100.00;100744.78;5093189;28;20052;-58
2021/10/06 04:19:41;;;;;;;18.67;8.17;;;;;;;13.12;100.00;100728.66;5092486;28;20125;-56
2021/10/06 04:22:06;;;;;;;14.40;7.13;;;;;;;13.28;100.00;100721.97;5068877;28;20035;-58
2021/10/06 04:24:32;;;;;;;17.73;6.72;;;;;;;13.31;100.00;100734.16;5092681;28;20037;-58
2021/10/06 04:26:57;;;;;;;12.63;5.23;;;;;;;13.33;100.00;100730.19;5074986;28;20040;-59
2021/10/06 04:29:23;;;;;;;15.10;5.80;;;;;;;13.08;100.00;100732.81;5092352;28;20191;-57
2021/10/06 04:31:48;;;;;;;22.48;6.10;;;;;;;13.09;100.00;100726.41;5064763;28;20020;-58
2021/10/06 04:34:14;;;;;;;21.53;7.70;;;;;;;12.83;100.00;100732.72;5092424;28;20188;-58
2021/10/06 04:36:41;;;;;;;11.85;7.18;;;;;;;12.93;100.00;100725.06;5074223;28;20044;-58
2021/10/06 04:39:07;;;;;;;15.97;9.20;;;;;;;12.64;100.00;100743.31;5075133;28;20528;-58
2021/10/06 04:41:33;;;;;;;18.35;9.02;;;;;;;13.09;100.00;100723.72;5092318;28;20355;-57
2021/10/06 04:43:58;;;;;;;19.58;10.43;;;;;;;12.51;100.00;100736.13;5092658;28;20036;-58
2021/10/06 04:46:24;;;;;;;23.33;12.37;;;;;;;12.75;100.00;100723.03;5092739;28;20043;-58
2021/10/06 04:48:49;;;;;;;30.97;14.87;;;;;;;12.77;100.00;100724.50;5074015;28;20068;-57
2021/10/06 04:51:15;;;;;;;35.77;15.17;;;;;;;12.67;100.00;100748.25;5091931;28;20030;-58
2021/10/06 04:53:41;;;;;;;66.37;16.13;;;;;;;12.32;100.00;100716.38;5074198;28;20315;-59
2021/10/06 04:56:06;;;;;;;49.20;14.97;;;;;;;12.25;100.00;100711.03;5074763;28;20261;-60
2021/10/06 04:58:31;;;;;;;87.57;17.13;;;;;;;12.30;100.00;100710.41;5092696;28;20039;-59
2021/10/06 05:00:57;;;;;;;59.33;14.07;;;;;;;13.42;100.00;100721.88;5092059;28;20033;-60
2021/10/06 05:03:22;;;;;;;52.93;14.47;;;;;;;13.56;100.00;100722.63;5074476;28;20090;-60
2021/10/06 05:05:48;;;;;;;58.23;15.50;;;;;;;14.29;100.00;100714.94;5092291;28;20118;-60
2021/10/06 05:08:13;;;;;;;44.93;13.30;;;;;;;13.64;100.00;100729.63;5086348;28;20037;-60
2021/10/06 05:10:39;;;;;;;33.53;12.47;;;;;;;14.05;100.00;100712.91;5088611;28;20284;-60
2021/10/06 05:13:05;;;;;;;49.03;17.20;;;;;;;13.17;100.00;100715.41;5057397;28;20123;-59
2021/10/06 05:15:30;;;;;;;49.70;17.92;;;;;;;13.04;100.00;100699.41;5080072;28;20056;-60
2021/10/06 05:17:56;;;;;;;35.00;13.65;;;;;;;12.37;100.00;100705.84;5037086;28;20076;-63
2021/10/06 05:20:22;;;;;;;27.98;11.70;;;;;;;11.19;100.00;101005.25;5073909;28;20082;-60
2021/10/06 05:22:47;;;;;;;70.75;13.98;;;;;;;12.91;100.00;100713.69;5074646;28;20045;-61
2021/10/06 05:25:13;;;;;;;37.37;11.93;;;;;;;12.29;100.00;100719.50;5058576;28;20445;-59
2021/10/06 05:27:38;;;;;;;29.63;10.50;;;;;;;12.12;100.00;100706.53;5069255;28;20040;-59
2021/10/06 05:30:07;;;;;;;26.27;9.63;;;;;;;11.64;100.00;100712.91;5095903;28;20036;-60
2021/10/06 05:32:32;;;;;;;24.50;8.73;;;;;;;11.41;100.00;100722.16;5095996;28;20327;-60
2021/10/06 05:34:58;;;;;;;37.13;11.00;;;;;;;11.61;100.00;100735.59;5095645;28;20296;-61
2021/10/06 05:37:23;;;;;;;45.43;12.33;;;;;;;12.29;100.00;100719.50;5095983;28;20142;-60
2021/10/06 05:39:50;;;;;;;39.05;14.02;;;;;;;12.73;100.00;100720.59;5076262;28;20675;-60
2021/10/06 05:42:15;;;;;;;83.35;14.55;;;;;;;12.56;100.00;100714.84;5077644;28;20048;-59
2021/10/06 05:44:41;;;;;;;48.70;15.03;;;;;;;13.37;100.00;100727.06;5095481;28;20375;-59
2021/10/06 05:47:06;;;;;;;43.95;13.02;;;;;;;13.85;100.00;100748.06;5078183;28;20086;-60
2021/10/06 05:49:32;;;;;;;38.43;11.30;;;;;;;13.10;100.00;100716.47;5076965;28;20036;-59
2021/10/06 05:51:57;;;;;;;40.13;14.38;;;;;;;12.11;100.00;100707.56;5091262;28;20112;-59
2021/10/06 05:54:23;;;;;;;52.90;16.75;;;;;;;11.69;100.00;100734.56;5080466;28;20039;-61
2021/10/06 05:56:48;;;;;;;50.30;18.33;;;;;;;11.13;100.00;100723.13;5072291;28;20037;-61
2021/10/06 05:59:14;;;;;;;38.93;14.97;;;;;;;11.31;100.00;100741.31;5076597;28;20433;-59
2021/10/06 06:01:39;;;;;;;59.73;16.87;;;;;;;11.12;100.00;100726.03;5091515;28;20283;-59
2021/10/06 06:04:05;;;;;;;38.13;15.18;;;;;;;11.42;100.00;100747.09;5060507;28;20036;-60
2021/10/06 06:06:30;;;;;;;40.63;16.03;;;;;;;11.42;100.00;100752.44;5079394;28;20086;-59
2021/10/06 06:08:56;;;;;;;27.00;11.63;;;;;;;11.35;100.00;100746.25;5074825;28;20052;-59
2021/10/06 06:11:23;;;;;;;45.53;16.07;;;;;;;11.39;100.00;100758.22;5082330;28;20040;-59
2021/10/06 06:13:50;;;;;;;40.10;14.23;;;;;;;11.38;100.00;100760.06;5073111;28;20094;-61
2021/10/06 06:16:15;;;;;;;24.63;9.03;;;;;;;11.51;100.00;100767.28;5077338;28;20280;-59
2021/10/06 06:18:41;;;;;;;18.02;8.38;;;;;;;11.25;100.00;100768.88;5074673;28;20323;-59
2021/10/06 06:21:07;;;;;;;17.05;9.10;;;;;;;11.32;100.00;100775.09;5084093;28;20068;-59
2021/10/06 06:23:33;;;;;;;26.52;10.43;;;;;;;11.51;100.00;100772.63;5069091;28;20044;-59
2021/10/06 06:25:59;;;;;;;26.25;8.98;;;;;;;11.49;100.00;100774.69;5055951;28;20060;-60
2021/10/06 06:28:24;;;;;;;23.63;8.70;;;;;;;11.30;100.00;100770.94;5079325;28;20039;-59
2021/10/06 06:30:50;;;;;;;16.53;8.83;;;;;;;11.35;100.00;100795.25;5059263;28;20052;-59
2021/10/06 06:33:15;;;;;;;29.50;10.43;;;;;;;11.40;100.00;100786.63;5094387;28;20495;-60
2021/10/06 06:35:41;;;;;;;26.40;9.83;;;;;;;11.47;100.00;100784.78;5076793;28;20036;-59
2021/10/06 06:38:06;;;;;;;18.63;10.23;;;;;;;11.58;100.00;100788.72;5094190;28;20036;-60
2021/10/06 06:40:32;;;;;;;20.75;9.15;;;;;;;11.75;100.00;100784.63;5092729;28;20480;-60
2021/10/06 06:42:58;;;;;;;17.20;8.80;;;;;;;11.55;100.00;100779.25;5083030;28;20036;-59
2021/10/06 06:45:24;;;;;;;21.08;9.65;;;;;;;11.79;100.00;100778.88;5083810;28;20032;-60
2021/10/06 06:47:49;;;;;;;22.38;9.35;;;;;;;11.74;100.00;100782.16;5083414;28;20054;-59
2021/10/06 06:50:17;;;;;;;22.53;9.23;;;;;;;11.87;100.00;100803.59;5085614;28;20044;-58
2021/10/06 06:52:43;;;;;;;17.87;8.30;;;;;;;11.89;100.00;100795.38;5064164;28;20036;-59
2021/10/06 06:55:09;;;;;;;25.27;9.80;;;;;;;11.83;100.00;100804.22;5083948;28;20263;-59
2021/10/06 06:57:35;;;;;;;14.48;8.05;;;;;;;11.72;100.00;100795.75;5050224;28;20044;-59
2021/10/06 07:00:01;;;;;;;15.85;8.88;;;;;;;11.83;100.00;100802.38;5063865;28;20029;-59
2021/10/06 07:02:27;;;;;;;16.55;7.75;;;;;;;11.59;100.00;100801.09;5084009;28;20125;-59
2021/10/06 07:04:52;;;;;;;16.88;7.63;;;;;;;11.61;100.00;100807.06;5066401;28;20040;-60
2021/10/06 07:07:18;;;;;;;12.15;6.88;;;;;;;11.59;100.00;100811.81;5064455;28;20395;-58
2021/10/06 07:09:48;;;;;;;15.30;6.90;;;;;;;11.68;100.00;100793.69;5087882;28;20093;-60
2021/10/06 07:12:20;;;;;;;15.23;7.37;;;;;;;11.67;100.00;100790.19;5066210;28;20060;-60
2021/10/06 07:14:47;;;;;;;21.57;7.97;;;;;;;11.77;100.00;100789.81;5082032;28;20626;-59
2021/10/06 07:17:13;;;;;;;22.07;7.80;;;;;;;11.94;100.00;100784.03;5066740;28;20788;-59
2021/10/06 07:19:39;;;;;;;17.35;7.97;;;;;;;12.07;100.00;100783.22;5082689;28;20295;-59
2021/10/06 07:22:06;;;;;;;41.05;8.07;;;;;;;11.96;100.00;100788.16;5064707;28;20379;-60
2021/10/06 07:24:31;;;;;;;21.70;7.60;;;;;;;11.99;100.00;100802.97;5083289;28;20043;-59
2021/10/06 07:26:57;;;;;;;21.63;6.65;;;;;;;11.76;100.00;100791.66;5065627;28;20257;-58
2021/10/06 07:29:23;;;;;;;16.88;6.60;;;;;;;12.50;100.00;100816.81;5083043;28;20119;-58
2021/10/06 07:31:48;;;;;;;20.77;7.35;;;;;;;12.40;100.00;100812.69;5064365;28;20059;-58
2021/10/06 07:34:14;;;;;;;10.85;6.43;;;;;;;12.18;100.00;100794.16;5083394;28;20036;-59
2021/10/06 07:36:39;;;;;;;39.17;7.90;;;;;;;12.22;100.00;100796.41;5065096;28;20033;-61
2021/10/06 07:39:06;;;;;;;20.02;8.65;;;;;;;12.19;100.00;100800.34;5081745;28;20044;-60
2021/10/06 07:41:31;;;;;;;28.23;7.63;;;;;;;12.29;100.00;100805.28;5082694;28;20452;-59
2021/10/06 07:43:59;;;;;;;24.33;8.10;;;;;;;12.25;100.00;100809.44;5083779;28;20476;-60
2021/10/06 07:46:25;;;;;;;19.73;7.43;;;;;;;12.31;100.00;100809.41;5082617;28;20277;-60
2021/10/06 07:48:52;;;;;;;17.73;8.10;;;;;;;11.99;100.00;100813.72;5081561;28;20112;-58
2021/10/06 07:51:18;;;;;;;19.15;8.85;;;;;;;12.01;100.00;100820.56;5083288;28;20260;-59
2021/10/06 07:53:44;;;;;;;28.75;9.93;;;;;;;11.98;100.00;100860.28;5082467;28;20028;-59
2021/10/06 07:56:10;;;;;;;29.55;9.43;;;;;;;12.12;100.00;100827.16;5064035;28;20529;-61
2021/10/06 07:58:36;;;;;;;20.95;8.50;;;;;;;12.17;100.00;100835.41;5065091;28;20116;-61
2021/10/06 08:01:02;;;;;;;23.42;7.32;;;;;;;12.25;100.00;100834.38;5062890;28;20131;-59
2021/10/06 08:03:28;;;;;;;25.00;7.82;;;;;;;12.25;100.00;100833.56;5081791;28;20416;-60
2021/10/06 08:05:54;;;;;;;24.63;10.48;;;;;;;12.38;100.00;100836.22;5082892;28;20082;-60
2021/10/06 08:08:20;;;;;;;23.17;7.37;;;;;;;12.36;100.00;100827.56;5062497;28;20047;-59
2021/10/06 08:10:45;;;;;;;15.13;6.10;;;;;;;12.03;100.00;100852.53;5073651;28;20359;-59
2021/10/06 08:13:11;;;;;;;16.17;6.00;;;;;;;12.14;100.00;100856.44;5072643;28;20044;-59
2021/10/06 08:15:36;;;;;;;24.93;6.57;;;;;;;12.10;100.00;100856.03;5073426;28;20296;-58
2021/10/06 08:18:04;;;;;;;55.88;7.63;;;;;;;11.93;100.00;100862.78;5072908;28;20062;-59
2021/10/06 08:20:33;;;;;;;37.00;7.10;;;;;;;11.88;100.00;100872.25;5072731;28;20037;-60
2021/10/06 08:23:03;;;;;;;109.47;10.23;;;;;;;13.52;100.00;100893.38;5074984;28;20289;-59
2021/10/06 08:25:29;;;;;;;78.43;8.00;;;;;;;14.83;100.00;100881.28;5093446;28;20384;-59
2021/10/06 08:27:55;;;;;;;61.92;7.43;;;;;;;15.27;100.00;100879.34;5076134;28;20618;-59
2021/10/06 08:30:23;;;;;;;36.23;6.30;;;;;;;15.33;100.00;100891.91;5072829;28;20496;-60
2021/10/06 08:32:50;;;;;;;20.90;5.30;;;;;;;11.88;100.00;100900.91;5071880;28;20025;-59
2021/10/06 08:35:15;;;;;;;;;;;;;;;11.70;100.00;100909.50;5090801;28;20330;-60
2021/10/06 08:37:41;;;;;;;9.47;3.33;;;;;;;11.78;100.00;100922.75;5092880;28;20317;-59
2021/10/06 08:40:07;;;;;;;17.38;3.55;;;;;;;11.86;100.00;100922.53;5092751;28;20036;-59
2021/10/06 08:42:34;;;;;;;11.57;3.00;;;;;;;11.92;100.00;100934.31;5093203;28;20082;-59
2021/10/06 08:45:07;;;;;;;14.15;4.00;;;;;;;11.94;100.00;100950.19;5074337;28;20104;-59
2021/10/06 08:47:35;;;;;;;40.40;4.87;;;;;;;11.84;100.00;100940.69;5074828;28;20127;-60
2021/10/06 08:50:01;;;;;;;24.47;4.07;;;;;;;11.82;100.00;100957.97;5057926;28;20279;-59
2021/10/06 08:52:26;;;;;;;33.78;4.53;;;;;;;11.73;100.00;100955.47;5069772;28;20269;-59
2021/10/06 08:54:52;;;;;;;57.03;4.55;;;;;;;11.59;100.00;100968.00;5076559;28;20396;-59
2021/10/06 08:57:18;;;;;;;52.40;4.80;;;;;;;14.97;100.00;100974.31;5042225;28;20064;-60
2021/10/06 08:59:44;;;;;;;67.95;5.03;;;;;;;15.53;100.00;100982.47;5058676;28;20029;-60
2021/10/06 09:02:12;;;;;;;77.45;5.35;;;;;;;14.42;100.00;100975.78;5058320;28;20400;-61
2021/10/06 09:04:37;;;;;;;13.17;3.07;;;;;;;13.20;100.00;100969.28;5080076;28;20077;-59
2021/10/06 09:07:05;;;;;;;17.25;3.38;;;;;;;12.91;100.00;100955.25;5076283;28;20372;-59
2021/10/06 09:09:35;;;;;;;20.23;4.27;;;;;;;12.67;100.00;100960.22;5077849;28;20044;-59
2021/10/06 09:12:07;;;;;;;22.27;3.97;;;;;;;12.74;100.00;100957.53;5076261;28;20274;-59
2021/10/06 09:14:32;;;;;;;20.53;3.90;;;;;;;14.17;100.00;100959.59;5076720;28;20270;-60
2021/10/06 09:17:05;;;;;;;21.00;3.27;;;;;;;13.01;100.00;100966.41;5076797;28;20269;-60
2021/10/06 09:19:40;;;;;;;22.97;2.60;;;;;;;12.73;100.00;100988.09;5058552;28;20045;-60
2021/10/06 09:22:19;;;;;;;17.03;2.80;;;;;;;12.85;100.00;100982.94;5059008;28;20273;-60
2021/10/06 09:25:02;;;;;;;18.90;3.13;;;;;;;12.86;100.00;100987.25;5058642;28;20265;-60
2021/10/06 09:27:31;;;;;;;17.07;3.40;;;;;;;12.93;100.00;100993.47;5077162;28;20273;-60
2021/10/06 09:29:59;;;;;;;14.80;2.70;;;;;;;12.96;100.00;100997.59;5096322;28;20249;-59
2021/10/06 09:32:26;;;;;;;20.23;3.33;;;;;;;13.11;100.00;101014.31;5095892;28;20288;-60
2021/10/06 09:35:06;;;;;;;150.17;8.23;;;;;;;12.62;100.00;101013.69;5095961;28;20249;-61
2021/10/06 09:37:33;;;;;;;38.50;3.90;;;;;;;12.86;100.00;101008.72;5078137;28;20273;-61
2021/10/06 09:39:58;;;;;;;13.27;2.65;;;;;;;12.83;100.00;101019.88;5096106;28;20363;-59
2021/10/06 09:42:24;;;;;;;31.27;3.70;;;;;;;12.95;100.00;101026.31;5077984;28;20449;-60
2021/10/06 09:44:55;;;;;;;26.52;4.53;;;;;;;13.06;100.00;101022.16;5087577;28;20453;-60
2021/10/06 09:47:21;;;;;;;20.87;3.53;;;;;;;13.24;100.00;101024.22;5085343;28;20114;-61
2021/10/06 09:49:55;;;;;;;15.65;2.90;;;;;;;13.62;100.00;101022.72;5084056;28;20644;-60
2021/10/06 09:52:26;;;;;;;18.17;2.87;;;;;;;13.62;100.00;101020.88;5067099;28;20040;-60
2021/10/06 09:54:58;;;;;;;27.93;3.80;;;;;;;13.75;100.00;101043.34;5084247;28;20276;-60
2021/10/06 09:57:24;;;;;;;17.27;3.00;;;;;;;13.60;100.00;101046.28;5044221;28;20280;-59
2021/10/06 09:59:51;;;;;;;11.20;2.43;;;;;;;13.51;100.00;101008.06;5083916;28;20273;-60
2021/10/06 10:02:18;;;;;;;23.70;3.57;;;;;;;13.53;100.00;100997.94;5086705;28;20472;-63
2021/10/06 10:04:44;;;;;;;19.97;2.93;;;;;;;13.54;100.00;101004.94;5050039;28;20264;-59
2021/10/06 10:07:09;;;;;;;16.95;2.95;;;;;;;13.43;100.00;101009.13;5067232;28;20322;-60
2021/10/06 10:09:36;;;;;;;17.60;3.63;;;;;;;13.68;100.00;101002.25;5085513;28;20032;-60
2021/10/06 10:12:02;;;;;;;15.50;3.60;;;;;;;13.68;100.00;100994.19;5088726;28;20509;-59
2021/10/06 10:14:27;;;;;;;21.58;3.20;;;;;;;13.59;100.00;101007.81;5087935;28;20281;-61
2021/10/06 10:16:53;;;;;;;11.30;2.35;;;;;;;13.35;100.00;101017.38;5091134;28;20074;-62
2021/10/06 10:19:18;;;;;;;12.95;3.22;;;;;;;13.76;100.00;101018.97;5089682;28;20043;-60
2021/10/06 10:21:48;;;;;;;20.33;3.47;;;;;;;13.51;100.00;101020.69;5090517;28;20032;-60
2021/10/06 10:24:21;;;;;;;22.60;3.40;;;;;;;13.69;100.00;101033.44;5088961;28;20044;-59
2021/10/06 10:27:19;;;;;;;15.77;4.00;;;;;;;13.66;100.00;101047.31;5085403;28;20268;-61
2021/10/06 10:30:03;;;;;;;11.45;4.53;;;;;;;13.62;100.00;101052.28;5074174;28;20280;-63
2021/10/06 10:32:42;;;;;;;13.07;3.13;;;;;;;13.71;100.00;101042.13;5079984;28;20040;-60
2021/10/06 10:35:10;;;;;;;19.87;3.53;;;;;;;13.82;100.00;101051.41;5098449;28;20310;-59
2021/10/06 10:37:53;;;;;;;7.03;2.83;;;;;;;13.97;100.00;101056.50;5097739;28;20260;-61
2021/10/06 10:40:32;;;;;;;15.87;3.50;;;;;;;14.76;100.00;101056.31;5088344;28;20281;-59
2021/10/06 10:43:02;;;;;;;10.90;2.37;;;;;;;15.75;100.00;101061.00;5096288;28;20356;-59
2021/10/06 10:45:41;;;;;;;12.90;2.40;;;;;;;16.45;100.00;101071.59;5095526;28;20284;-61
2021/10/06 10:48:10;;;;;;;12.40;2.00;;;;;;;18.05;100.00;101074.56;5077243;28;20305;-60
2021/10/06 10:50:40;;;;;;;9.87;1.73;;;;;;;17.46;100.00;101080.84;5090251;28;20150;-60
2021/10/06 10:53:07;;;;;;;14.87;2.27;;;;;;;18.80;100.00;101071.03;5074786;28;20036;-60
2021/10/06 10:55:52;;;;;;;5.77;1.40;;;;;;;19.81;100.00;101082.03;5053300;28;20069;-60
2021/10/06 10:58:29;;;;;;;6.43;1.50;;;;;;;17.60;100.00;101094.94;5049154;28;20112;-60
2021/10/06 11:00:59;;;;;;;4.93;2.27;;;;;;;17.03;100.00;101088.22;5040212;28;20086;-61
2021/10/06 11:03:26;;;;;;;11.23;2.30;;;;;;;17.63;100.00;101092.59;5067165;28;20039;-60
2021/10/06 11:05:52;;;;;;;13.90;2.57;;;;;;;17.65;100.00;101081.56;5094390;28;20077;-60
2021/10/06 11:08:29;;;;;;;13.03;2.10;;;;;;;17.75;100.00;101087.16;5076080;28;20032;-60